EWG7XR LOWW-EDDK
Flight info
| Callsign | EWG7XR |
|---|---|
| Flight time | 1h 12m |
| Altitude | 34000 |
| Route | BUWUT1D BUWUT DCT DITIS DCT RAPET T843 VELIS DCT MASEK T841 ERNEP ERNEP1B |
| Aircraft | A21N/M-SDE2E3FGHIRWXY/LB1 |
Departure
| Time | 2026-04-26 18:40 |
|---|---|
| Airport | Vienna International Airport (LOWW) |
Arrival
| Time | 2026-04-26 19:53 |
|---|---|
| Airport | Cologne Bonn Airport (EDDK) |
| Time | Latitude | Longitude | Altitude | Speed | Heading |
|---|---|---|---|---|---|
| 2026-04-26 17:55 | 48.11936 | 16.55808 | 625 ft | 0 kts | 296° |
| 2026-04-26 18:15 | 48.11933 | 16.55816 | 630 ft | 4 kts | 295° |
| 2026-04-26 18:15 | 48.11923 | 16.55853 | 623 ft | 4 kts | 284° |
| 2026-04-26 18:16 | 48.11920 | 16.55892 | 626 ft | 4 kts | 263° |
| 2026-04-26 18:16 | 48.11932 | 16.55927 | 619 ft | 0 kts | 206° |
| 2026-04-26 18:21 | 48.11914 | 16.55914 | 630 ft | 4 kts | 206° |
| 2026-04-26 18:21 | 48.11883 | 16.55891 | 622 ft | 6 kts | 206° |
| 2026-04-26 18:21 | 48.11841 | 16.55861 | 619 ft | 8 kts | 206° |
| 2026-04-26 18:21 | 48.11831 | 16.55853 | 615 ft | 0 kts | 205° |
| 2026-04-26 18:27 | 48.11817 | 16.55844 | 630 ft | 4 kts | 205° |
| 2026-04-26 18:27 | 48.11777 | 16.55815 | 615 ft | 9 kts | 205° |
| 2026-04-26 18:27 | 48.11711 | 16.55784 | 618 ft | 11 kts | 168° |
| 2026-04-26 18:27 | 48.11661 | 16.55885 | 615 ft | 14 kts | 115° |
| 2026-04-26 18:28 | 48.11617 | 16.56023 | 618 ft | 16 kts | 116° |
| 2026-04-26 18:28 | 48.11583 | 16.56126 | 619 ft | 17 kts | 116° |
| 2026-04-26 18:28 | 48.11528 | 16.56297 | 626 ft | 19 kts | 115° |
| 2026-04-26 18:28 | 48.11468 | 16.56480 | 619 ft | 20 kts | 116° |
| 2026-04-26 18:29 | 48.11405 | 16.56673 | 618 ft | 21 kts | 116° |
| 2026-04-26 18:29 | 48.11337 | 16.56879 | 627 ft | 23 kts | 115° |
| 2026-04-26 18:29 | 48.11268 | 16.57094 | 625 ft | 24 kts | 115° |
| 2026-04-26 18:29 | 48.11193 | 16.57323 | 623 ft | 25 kts | 116° |
| 2026-04-26 18:30 | 48.11115 | 16.57563 | 618 ft | 26 kts | 115° |
| 2026-04-26 18:30 | 48.11048 | 16.57763 | 626 ft | 13 kts | 129° |
| 2026-04-26 18:30 | 48.10965 | 16.57829 | 615 ft | 14 kts | 166° |
| 2026-04-26 18:30 | 48.10862 | 16.57871 | 627 ft | 16 kts | 163° |
| 2026-04-26 18:31 | 48.10750 | 16.57919 | 624 ft | 17 kts | 164° |
| 2026-04-26 18:31 | 48.10628 | 16.57970 | 621 ft | 19 kts | 164° |
| 2026-04-26 18:31 | 48.10499 | 16.58025 | 617 ft | 20 kts | 164° |
| 2026-04-26 18:31 | 48.10360 | 16.58083 | 619 ft | 21 kts | 164° |
| 2026-04-26 18:32 | 48.10213 | 16.58146 | 622 ft | 23 kts | 164° |
| 2026-04-26 18:32 | 48.10059 | 16.58211 | 621 ft | 24 kts | 164° |
| 2026-04-26 18:32 | 48.09894 | 16.58280 | 621 ft | 25 kts | 164° |
| 2026-04-26 18:32 | 48.09724 | 16.58352 | 623 ft | 26 kts | 164° |
| 2026-04-26 18:33 | 48.09544 | 16.58427 | 619 ft | 27 kts | 164° |
| 2026-04-26 18:33 | 48.09356 | 16.58508 | 626 ft | 29 kts | 164° |
| 2026-04-26 18:33 | 48.09194 | 16.58577 | 615 ft | 15 kts | 164° |
| 2026-04-26 18:33 | 48.09090 | 16.58621 | 622 ft | 16 kts | 164° |
| 2026-04-26 18:34 | 48.08975 | 16.58668 | 622 ft | 18 kts | 165° |
| 2026-04-26 18:34 | 48.08851 | 16.58726 | 618 ft | 19 kts | 146° |
| 2026-04-26 18:34 | 48.08791 | 16.58890 | 619 ft | 17 kts | 91° |
| 2026-04-26 18:34 | 48.08791 | 16.58919 | 617 ft | 0 kts | 85° |
| 2026-04-26 18:38 | 48.08797 | 16.58965 | 627 ft | 8 kts | 70° |
| 2026-04-26 18:38 | 48.08829 | 16.59039 | 615 ft | 9 kts | 46° |
| 2026-04-26 18:38 | 48.08887 | 16.59101 | 631 ft | 11 kts | 17° |
| 2026-04-26 18:38 | 48.08942 | 16.59101 | 615 ft | 0 kts | 347° |
| 2026-04-26 18:39 | 48.08944 | 16.59100 | 615 ft | 6 kts | 347° |
| 2026-04-26 18:39 | 48.09213 | 16.58988 | 622 ft | 74 kts | 344° |
| 2026-04-26 18:40 | 48.09911 | 16.58694 | 622 ft | 131 kts | 344° |
| 2026-04-26 18:40 | 48.10928 | 16.58260 | 667 ft | 165 kts | 344° |
| 2026-04-26 18:40 | 48.12010 | 16.57781 | 1228 ft | 168 kts | 345° |
| 2026-04-26 18:40 | 48.13146 | 16.57294 | 1899 ft | 169 kts | 348° |
| 2026-04-26 18:41 | 48.14327 | 16.57420 | 2313 ft | 181 kts | 21° |
| 2026-04-26 18:41 | 48.15446 | 16.58427 | 2792 ft | 195 kts | 34° |
| 2026-04-26 18:41 | 48.16616 | 16.59652 | 3227 ft | 219 kts | 33° |
| 2026-04-26 18:41 | 48.17952 | 16.61002 | 3745 ft | 241 kts | 32° |
| 2026-04-26 18:42 | 48.19387 | 16.62420 | 4546 ft | 250 kts | 30° |
| 2026-04-26 18:42 | 48.20873 | 16.63791 | 5407 ft | 256 kts | 27° |
| 2026-04-26 18:42 | 48.22444 | 16.65118 | 6231 ft | 260 kts | 19° |
| 2026-04-26 18:42 | 48.24177 | 16.65899 | 7020 ft | 258 kts | 360° |
| 2026-04-26 18:43 | 48.25939 | 16.65614 | 7812 ft | 255 kts | 337° |
| 2026-04-26 18:43 | 48.27434 | 16.64290 | 8631 ft | 255 kts | 315° |
| 2026-04-26 18:43 | 48.28526 | 16.62161 | 9493 ft | 259 kts | 302° |
| 2026-04-26 18:43 | 48.29471 | 16.59800 | 10290 ft | 269 kts | 301° |
| 2026-04-26 18:44 | 48.30462 | 16.57312 | 10650 ft | 291 kts | 302° |
| 2026-04-26 18:44 | 48.31537 | 16.54662 | 11192 ft | 304 kts | 302° |
| 2026-04-26 18:44 | 48.32661 | 16.51921 | 11953 ft | 309 kts | 302° |
| 2026-04-26 18:44 | 48.33808 | 16.49157 | 12791 ft | 313 kts | 303° |
| 2026-04-26 18:45 | 48.34973 | 16.46351 | 13621 ft | 317 kts | 303° |
| 2026-04-26 18:45 | 48.36155 | 16.43512 | 14388 ft | 321 kts | 303° |
| 2026-04-26 18:45 | 48.37340 | 16.40684 | 15098 ft | 325 kts | 303° |
| 2026-04-26 18:45 | 48.38551 | 16.37785 | 15839 ft | 329 kts | 303° |
| 2026-04-26 18:46 | 48.39780 | 16.34833 | 16565 ft | 332 kts | 303° |
| 2026-04-26 18:46 | 48.41004 | 16.31898 | 17288 ft | 336 kts | 303° |
| 2026-04-26 18:46 | 48.42252 | 16.28895 | 18017 ft | 339 kts | 302° |
| 2026-04-26 18:46 | 48.43509 | 16.25863 | 18696 ft | 343 kts | 302° |
| 2026-04-26 18:47 | 48.44785 | 16.22783 | 19317 ft | 346 kts | 302° |
| 2026-04-26 18:47 | 48.46057 | 16.19700 | 19920 ft | 350 kts | 302° |
| 2026-04-26 18:47 | 48.47349 | 16.16563 | 20530 ft | 353 kts | 302° |
| 2026-04-26 18:47 | 48.48633 | 16.13435 | 21096 ft | 357 kts | 301° |
| 2026-04-26 18:48 | 48.49948 | 16.10215 | 21677 ft | 360 kts | 301° |
| 2026-04-26 18:48 | 48.51273 | 16.06965 | 22268 ft | 363 kts | 301° |
| 2026-04-26 18:48 | 48.52594 | 16.03728 | 22829 ft | 367 kts | 301° |
| 2026-04-26 18:48 | 48.53959 | 16.00430 | 23400 ft | 370 kts | 301° |
| 2026-04-26 18:49 | 48.55336 | 15.97112 | 23937 ft | 373 kts | 301° |
| 2026-04-26 18:49 | 48.56700 | 15.93804 | 24412 ft | 376 kts | 301° |
| 2026-04-26 18:49 | 48.58082 | 15.90419 | 24909 ft | 378 kts | 301° |
| 2026-04-26 18:49 | 48.59473 | 15.87019 | 25399 ft | 380 kts | 301° |
| 2026-04-26 18:50 | 48.60852 | 15.83643 | 25879 ft | 382 kts | 301° |
| 2026-04-26 18:50 | 48.62257 | 15.80198 | 26348 ft | 384 kts | 300° |
| 2026-04-26 18:50 | 48.63653 | 15.76763 | 26778 ft | 387 kts | 300° |
| 2026-04-26 18:50 | 48.65062 | 15.73253 | 27219 ft | 389 kts | 300° |
| 2026-04-26 18:51 | 48.66457 | 15.69770 | 27663 ft | 391 kts | 300° |
| 2026-04-26 18:51 | 48.67882 | 15.66225 | 28137 ft | 392 kts | 300° |
| 2026-04-26 18:51 | 48.69309 | 15.62687 | 28594 ft | 393 kts | 300° |
| 2026-04-26 18:51 | 48.70726 | 15.59194 | 29013 ft | 395 kts | 300° |
| 2026-04-26 18:52 | 48.72174 | 15.55619 | 29417 ft | 397 kts | 300° |
| 2026-04-26 18:52 | 48.73619 | 15.52024 | 29815 ft | 399 kts | 300° |
| 2026-04-26 18:52 | 48.75052 | 15.48462 | 30210 ft | 401 kts | 300° |
| 2026-04-26 18:52 | 48.76511 | 15.44839 | 30558 ft | 402 kts | 300° |
| 2026-04-26 18:53 | 48.77970 | 15.41196 | 30853 ft | 404 kts | 299° |
| 2026-04-26 18:53 | 48.79413 | 15.37573 | 31161 ft | 406 kts | 299° |
| 2026-04-26 18:53 | 48.80883 | 15.33890 | 31500 ft | 407 kts | 300° |
| 2026-04-26 18:53 | 48.82358 | 15.30216 | 31945 ft | 406 kts | 300° |
| 2026-04-26 18:54 | 48.83833 | 15.26556 | 32393 ft | 404 kts | 300° |
| 2026-04-26 18:54 | 48.85269 | 15.22959 | 32802 ft | 402 kts | 299° |
| 2026-04-26 18:54 | 48.86727 | 15.19302 | 33209 ft | 401 kts | 299° |
| 2026-04-26 18:54 | 48.88162 | 15.15719 | 33588 ft | 399 kts | 299° |
| 2026-04-26 18:55 | 48.89612 | 15.12120 | 33961 ft | 398 kts | 301° |
| 2026-04-26 18:55 | 48.91218 | 15.08649 | 34254 ft | 399 kts | 304° |
| 2026-04-26 18:55 | 48.94526 | 15.01894 | 34296 ft | 399 kts | 304° |
| 2026-04-26 18:56 | 48.97836 | 14.95140 | 34283 ft | 399 kts | 304° |
| 2026-04-26 18:56 | 49.01138 | 14.88317 | 34300 ft | 399 kts | 304° |
| 2026-04-26 18:57 | 49.03867 | 14.82684 | 34286 ft | 398 kts | 304° |
| 2026-04-26 18:57 | 49.07720 | 14.74762 | 34279 ft | 398 kts | 304° |
| 2026-04-26 18:58 | 49.11012 | 14.67969 | 34274 ft | 400 kts | 304° |
| 2026-04-26 18:58 | 49.14322 | 14.61095 | 34281 ft | 401 kts | 304° |
| 2026-04-26 18:59 | 49.17619 | 14.54239 | 34280 ft | 401 kts | 304° |
| 2026-04-26 18:59 | 49.20923 | 14.47332 | 34281 ft | 401 kts | 304° |
| 2026-04-26 19:00 | 49.24208 | 14.40459 | 34282 ft | 401 kts | 304° |
| 2026-04-26 19:00 | 49.27493 | 14.33524 | 34286 ft | 401 kts | 303° |
| 2026-04-26 19:01 | 49.30773 | 14.26607 | 34282 ft | 403 kts | 304° |
| 2026-04-26 19:01 | 49.34065 | 14.19677 | 34287 ft | 402 kts | 304° |
| 2026-04-26 19:02 | 49.37351 | 14.12681 | 34290 ft | 402 kts | 303° |
| 2026-04-26 19:02 | 49.40067 | 14.06926 | 34292 ft | 402 kts | 304° |
| 2026-04-26 19:03 | 49.43893 | 13.98832 | 34288 ft | 402 kts | 304° |
| 2026-04-26 19:03 | 49.47183 | 13.91844 | 34285 ft | 403 kts | 303° |
| 2026-04-26 19:04 | 49.50468 | 13.84827 | 34290 ft | 403 kts | 303° |
| 2026-04-26 19:04 | 49.53742 | 13.77828 | 34288 ft | 403 kts | 303° |
| 2026-04-26 19:05 | 49.58650 | 13.67289 | 34289 ft | 404 kts | 303° |
| 2026-04-26 19:06 | 49.61908 | 13.60255 | 34308 ft | 404 kts | 303° |
| 2026-04-26 19:06 | 49.65186 | 13.53147 | 34293 ft | 409 kts | 304° |
| 2026-04-26 19:07 | 49.68488 | 13.46006 | 34291 ft | 410 kts | 304° |
| 2026-04-26 19:07 | 49.71800 | 13.38796 | 34289 ft | 410 kts | 304° |
| 2026-04-26 19:08 | 49.75098 | 13.31611 | 34287 ft | 410 kts | 304° |
| 2026-04-26 19:08 | 49.78371 | 13.24455 | 34290 ft | 410 kts | 304° |
| 2026-04-26 19:09 | 49.81676 | 13.17210 | 34293 ft | 410 kts | 304° |
| 2026-04-26 19:09 | 49.84954 | 13.10007 | 34295 ft | 410 kts | 304° |
| 2026-04-26 19:10 | 49.88245 | 13.02755 | 34298 ft | 410 kts | 304° |
| 2026-04-26 19:10 | 49.91506 | 12.95542 | 34298 ft | 410 kts | 303° |
| 2026-04-26 19:11 | 49.94779 | 12.88267 | 34301 ft | 411 kts | 304° |
| 2026-04-26 19:11 | 49.98035 | 12.80971 | 34295 ft | 411 kts | 304° |
| 2026-04-26 19:12 | 50.01305 | 12.73726 | 34297 ft | 410 kts | 304° |
| 2026-04-26 19:12 | 50.04024 | 12.67651 | 34288 ft | 410 kts | 304° |
| 2026-04-26 19:13 | 50.07295 | 12.60337 | 34296 ft | 410 kts | 304° |
| 2026-04-26 19:13 | 50.10548 | 12.53054 | 34296 ft | 410 kts | 304° |
| 2026-04-26 19:14 | 50.14310 | 12.44567 | 34294 ft | 410 kts | 304° |
| 2026-04-26 19:14 | 50.17014 | 12.38425 | 34303 ft | 412 kts | 304° |
| 2026-04-26 19:15 | 50.19583 | 12.30511 | 34307 ft | 413 kts | 287° |
| 2026-04-26 19:15 | 50.20961 | 12.21779 | 34312 ft | 413 kts | 284° |
| 2026-04-26 19:16 | 50.22290 | 12.13082 | 34302 ft | 413 kts | 284° |
| 2026-04-26 19:16 | 50.23651 | 12.04343 | 34293 ft | 413 kts | 284° |
| 2026-04-26 19:17 | 50.25006 | 11.95653 | 34288 ft | 412 kts | 285° |
| 2026-04-26 19:17 | 50.26366 | 11.86921 | 34289 ft | 412 kts | 285° |
| 2026-04-26 19:18 | 50.27726 | 11.78233 | 34289 ft | 412 kts | 285° |
| 2026-04-26 19:18 | 50.29063 | 11.69499 | 34295 ft | 410 kts | 284° |
| 2026-04-26 19:19 | 50.30383 | 11.60847 | 34294 ft | 410 kts | 285° |
| 2026-04-26 19:19 | 50.31686 | 11.52151 | 34300 ft | 408 kts | 284° |
| 2026-04-26 19:20 | 50.32963 | 11.43511 | 34299 ft | 408 kts | 284° |
| 2026-04-26 19:20 | 50.34245 | 11.34891 | 34306 ft | 408 kts | 284° |
| 2026-04-26 19:21 | 50.35546 | 11.26245 | 34307 ft | 408 kts | 284° |
| 2026-04-26 19:21 | 50.36828 | 11.17478 | 34309 ft | 409 kts | 284° |
| 2026-04-26 19:22 | 50.38087 | 11.08872 | 34304 ft | 408 kts | 284° |
| 2026-04-26 19:22 | 50.39344 | 11.00222 | 34304 ft | 408 kts | 284° |
| 2026-04-26 19:23 | 50.40596 | 10.91533 | 34302 ft | 408 kts | 284° |
| 2026-04-26 19:23 | 50.41828 | 10.82864 | 34304 ft | 408 kts | 284° |
| 2026-04-26 19:24 | 50.43063 | 10.74206 | 34300 ft | 407 kts | 284° |
| 2026-04-26 19:24 | 50.44900 | 10.61388 | 33729 ft | 390 kts | 285° |
| 2026-04-26 19:25 | 50.45491 | 10.57311 | 33215 ft | 386 kts | 284° |
| 2026-04-26 19:25 | 50.45886 | 10.54539 | 32856 ft | 383 kts | 284° |
| 2026-04-26 19:25 | 50.46682 | 10.49158 | 32353 ft | 378 kts | 287° |
| 2026-04-26 19:25 | 50.47548 | 10.45323 | 32285 ft | 376 kts | 295° |
| 2026-04-26 19:26 | 50.49779 | 10.37874 | 32287 ft | 376 kts | 296° |
| 2026-04-26 19:26 | 50.52005 | 10.30477 | 31999 ft | 374 kts | 296° |
| 2026-04-26 19:27 | 50.53107 | 10.26768 | 31514 ft | 371 kts | 296° |
| 2026-04-26 19:27 | 50.54186 | 10.23147 | 30998 ft | 368 kts | 297° |
| 2026-04-26 19:27 | 50.55273 | 10.19504 | 30485 ft | 365 kts | 297° |
| 2026-04-26 19:27 | 50.56351 | 10.15896 | 29906 ft | 363 kts | 297° |
| 2026-04-26 19:28 | 50.57421 | 10.12317 | 29314 ft | 361 kts | 296° |
| 2026-04-26 19:28 | 50.58487 | 10.08740 | 28729 ft | 358 kts | 296° |
| 2026-04-26 19:28 | 50.59546 | 10.05203 | 28162 ft | 356 kts | 296° |
| 2026-04-26 19:28 | 50.60590 | 10.01721 | 27610 ft | 354 kts | 296° |
| 2026-04-26 19:29 | 50.61630 | 9.98210 | 27066 ft | 353 kts | 295° |
| 2026-04-26 19:29 | 50.62377 | 9.94531 | 26524 ft | 352 kts | 286° |
| 2026-04-26 19:29 | 50.62930 | 9.90775 | 25998 ft | 351 kts | 284° |
| 2026-04-26 19:29 | 50.63459 | 9.87076 | 25484 ft | 349 kts | 284° |
| 2026-04-26 19:30 | 50.63997 | 9.83353 | 24976 ft | 348 kts | 284° |
| 2026-04-26 19:30 | 50.64534 | 9.79629 | 24519 ft | 344 kts | 285° |
| 2026-04-26 19:30 | 50.65058 | 9.75985 | 24329 ft | 337 kts | 285° |
| 2026-04-26 19:30 | 50.65401 | 9.73598 | 24285 ft | 337 kts | 284° |
| 2026-04-26 19:31 | 50.66088 | 9.68818 | 24282 ft | 336 kts | 284° |
| 2026-04-26 19:31 | 50.66606 | 9.65200 | 24293 ft | 337 kts | 284° |
| 2026-04-26 19:31 | 50.67116 | 9.61636 | 24295 ft | 337 kts | 284° |
| 2026-04-26 19:31 | 50.67624 | 9.58013 | 24301 ft | 337 kts | 284° |
| 2026-04-26 19:32 | 50.68126 | 9.54400 | 24298 ft | 337 kts | 284° |
| 2026-04-26 19:32 | 50.68630 | 9.50799 | 24302 ft | 337 kts | 284° |
| 2026-04-26 19:32 | 50.69131 | 9.47233 | 24303 ft | 337 kts | 284° |
| 2026-04-26 19:32 | 50.69640 | 9.43622 | 24303 ft | 337 kts | 284° |
| 2026-04-26 19:33 | 50.70160 | 9.40006 | 24298 ft | 337 kts | 284° |
| 2026-04-26 19:33 | 50.70671 | 9.36437 | 24286 ft | 337 kts | 284° |
| 2026-04-26 19:33 | 50.71186 | 9.32821 | 24295 ft | 336 kts | 284° |
| 2026-04-26 19:33 | 50.71695 | 9.29211 | 24097 ft | 335 kts | 284° |
| 2026-04-26 19:34 | 50.72193 | 9.25662 | 23674 ft | 333 kts | 284° |
| 2026-04-26 19:34 | 50.72691 | 9.22092 | 23147 ft | 331 kts | 284° |
| 2026-04-26 19:34 | 50.73179 | 9.18563 | 22619 ft | 330 kts | 284° |
| 2026-04-26 19:34 | 50.73672 | 9.15010 | 22084 ft | 329 kts | 284° |
| 2026-04-26 19:35 | 50.74153 | 9.11524 | 21576 ft | 328 kts | 284° |
| 2026-04-26 19:35 | 50.74637 | 9.07988 | 21057 ft | 327 kts | 283° |
| 2026-04-26 19:35 | 50.75115 | 9.04514 | 20558 ft | 326 kts | 283° |
| 2026-04-26 19:35 | 50.75597 | 9.01003 | 20060 ft | 325 kts | 283° |
| 2026-04-26 19:36 | 50.76072 | 8.97508 | 19572 ft | 324 kts | 283° |
| 2026-04-26 19:36 | 50.76389 | 8.95195 | 19251 ft | 324 kts | 283° |
| 2026-04-26 19:36 | 50.77010 | 8.90577 | 18624 ft | 323 kts | 283° |
| 2026-04-26 19:36 | 50.77471 | 8.87095 | 18090 ft | 322 kts | 283° |
| 2026-04-26 19:37 | 50.77928 | 8.83668 | 17573 ft | 321 kts | 283° |
| 2026-04-26 19:37 | 50.78397 | 8.80184 | 17037 ft | 320 kts | 283° |
| 2026-04-26 19:37 | 50.78861 | 8.76788 | 16530 ft | 319 kts | 283° |
| 2026-04-26 19:37 | 50.79331 | 8.73341 | 16022 ft | 318 kts | 283° |
| 2026-04-26 19:38 | 50.79790 | 8.69944 | 15520 ft | 318 kts | 283° |
| 2026-04-26 19:38 | 50.80248 | 8.66516 | 15027 ft | 317 kts | 283° |
| 2026-04-26 19:38 | 50.80702 | 8.63094 | 14544 ft | 316 kts | 283° |
| 2026-04-26 19:38 | 50.81148 | 8.59731 | 14073 ft | 315 kts | 283° |
| 2026-04-26 19:39 | 50.81599 | 8.56333 | 13544 ft | 315 kts | 283° |
| 2026-04-26 19:39 | 50.82050 | 8.52941 | 13021 ft | 314 kts | 283° |
| 2026-04-26 19:39 | 50.82501 | 8.49548 | 12502 ft | 313 kts | 283° |
| 2026-04-26 19:39 | 50.82946 | 8.46213 | 11993 ft | 313 kts | 283° |
| 2026-04-26 19:40 | 50.83388 | 8.42833 | 11484 ft | 313 kts | 283° |
| 2026-04-26 19:40 | 50.83826 | 8.39458 | 10991 ft | 312 kts | 283° |
| 2026-04-26 19:40 | 50.84267 | 8.36126 | 10544 ft | 311 kts | 284° |
| 2026-04-26 19:40 | 50.84708 | 8.32802 | 10317 ft | 302 kts | 284° |
| 2026-04-26 19:41 | 50.85135 | 8.29607 | 10267 ft | 288 kts | 284° |
| 2026-04-26 19:41 | 50.85535 | 8.26570 | 10263 ft | 279 kts | 284° |
| 2026-04-26 19:41 | 50.85925 | 8.23601 | 10275 ft | 279 kts | 284° |
| 2026-04-26 19:41 | 50.86184 | 8.21597 | 10283 ft | 279 kts | 284° |
| 2026-04-26 19:42 | 50.86709 | 8.17553 | 10291 ft | 279 kts | 284° |
| 2026-04-26 19:42 | 50.87102 | 8.14540 | 10292 ft | 279 kts | 284° |
| 2026-04-26 19:42 | 50.87495 | 8.11499 | 10293 ft | 279 kts | 284° |
| 2026-04-26 19:42 | 50.87877 | 8.08536 | 10293 ft | 279 kts | 284° |
| 2026-04-26 19:43 | 50.88266 | 8.05507 | 10296 ft | 279 kts | 284° |
| 2026-04-26 19:43 | 50.88650 | 8.02518 | 10295 ft | 279 kts | 284° |
| 2026-04-26 19:43 | 50.89035 | 7.99507 | 10291 ft | 277 kts | 284° |
| 2026-04-26 19:43 | 50.89416 | 7.96512 | 10293 ft | 276 kts | 284° |
| 2026-04-26 19:44 | 50.89791 | 7.93561 | 10292 ft | 274 kts | 284° |
| 2026-04-26 19:44 | 50.90163 | 7.90622 | 9955 ft | 270 kts | 284° |
| 2026-04-26 19:44 | 50.90533 | 7.87699 | 9478 ft | 270 kts | 284° |
| 2026-04-26 19:44 | 50.90898 | 7.84820 | 8935 ft | 269 kts | 283° |
| 2026-04-26 19:45 | 50.91264 | 7.81921 | 8419 ft | 268 kts | 283° |
| 2026-04-26 19:45 | 50.91623 | 7.79021 | 7897 ft | 266 kts | 283° |
| 2026-04-26 19:45 | 50.91978 | 7.76147 | 7411 ft | 264 kts | 283° |
| 2026-04-26 19:45 | 50.92334 | 7.73293 | 6908 ft | 263 kts | 283° |
| 2026-04-26 19:46 | 50.92689 | 7.70480 | 6411 ft | 262 kts | 283° |
| 2026-04-26 19:46 | 50.93046 | 7.67644 | 5889 ft | 261 kts | 282° |
| 2026-04-26 19:46 | 50.93404 | 7.64799 | 5367 ft | 262 kts | 282° |
| 2026-04-26 19:46 | 50.93755 | 7.62002 | 5064 ft | 261 kts | 282° |
| 2026-04-26 19:47 | 50.94104 | 7.59202 | 4728 ft | 258 kts | 281° |
| 2026-04-26 19:47 | 50.94334 | 7.57348 | 4428 ft | 259 kts | 281° |
| 2026-04-26 19:47 | 50.94801 | 7.53572 | 3873 ft | 260 kts | 281° |
| 2026-04-26 19:47 | 50.95146 | 7.50774 | 3483 ft | 260 kts | 281° |
| 2026-04-26 19:48 | 50.95519 | 7.47966 | 3149 ft | 258 kts | 281° |
| 2026-04-26 19:48 | 50.95617 | 7.45136 | 2987 ft | 258 kts | 263° |
| 2026-04-26 19:48 | 50.95196 | 7.42468 | 2970 ft | 244 kts | 249° |
| 2026-04-26 19:48 | 50.94458 | 7.40147 | 2963 ft | 226 kts | 238° |
| 2026-04-26 19:49 | 50.93771 | 7.38005 | 2957 ft | 209 kts | 243° |
| 2026-04-26 19:49 | 50.93180 | 7.36080 | 2996 ft | 183 kts | 244° |
| 2026-04-26 19:49 | 50.92655 | 7.34347 | 2880 ft | 164 kts | 244° |
| 2026-04-26 19:49 | 50.92172 | 7.32747 | 2689 ft | 160 kts | 244° |
| 2026-04-26 19:50 | 50.91689 | 7.31147 | 2503 ft | 161 kts | 244° |
| 2026-04-26 19:50 | 50.91206 | 7.29548 | 2274 ft | 163 kts | 244° |
| 2026-04-26 19:50 | 50.90731 | 7.27979 | 2060 ft | 149 kts | 244° |
| 2026-04-26 19:50 | 50.90291 | 7.26520 | 1831 ft | 145 kts | 244° |
| 2026-04-26 19:51 | 50.89852 | 7.25076 | 1626 ft | 144 kts | 244° |
| 2026-04-26 19:51 | 50.89421 | 7.23647 | 1437 ft | 143 kts | 245° |
| 2026-04-26 19:51 | 50.88993 | 7.22240 | 1255 ft | 143 kts | 245° |
| 2026-04-26 19:51 | 50.88564 | 7.20825 | 1058 ft | 143 kts | 246° |
| 2026-04-26 19:52 | 50.88138 | 7.19415 | 853 ft | 142 kts | 245° |
| 2026-04-26 19:52 | 50.87714 | 7.18003 | 669 ft | 141 kts | 246° |
| 2026-04-26 19:52 | 50.87291 | 7.16606 | 468 ft | 140 kts | 246° |
| 2026-04-26 19:52 | 50.86873 | 7.15229 | 292 ft | 137 kts | 245° |
| 2026-04-26 19:53 | 50.86522 | 7.14054 | 263 ft | 81 kts | 244° |
| 2026-04-26 19:53 | 50.86401 | 7.13649 | 258 ft | 20 kts | 245° |
| 2026-04-26 19:53 | 50.86372 | 7.13520 | 257 ft | 8 kts | 270° |
| 2026-04-26 19:53 | 50.86400 | 7.13429 | 257 ft | 11 kts | 314° |
| 2026-04-26 19:54 | 50.86458 | 7.13347 | 255 ft | 12 kts | 319° |
| 2026-04-26 19:54 | 50.86523 | 7.13254 | 254 ft | 13 kts | 316° |
| 2026-04-26 19:54 | 50.86595 | 7.13147 | 252 ft | 15 kts | 317° |
| 2026-04-26 19:54 | 50.86675 | 7.13033 | 250 ft | 16 kts | 318° |
| 2026-04-26 19:55 | 50.86759 | 7.12912 | 247 ft | 17 kts | 317° |
| 2026-04-26 19:55 | 50.86850 | 7.12780 | 244 ft | 18 kts | 317° |
| 2026-04-26 19:55 | 50.86946 | 7.12640 | 241 ft | 19 kts | 317° |
| 2026-04-26 19:55 | 50.87046 | 7.12495 | 238 ft | 20 kts | 317° |
| 2026-04-26 19:56 | 50.87150 | 7.12345 | 237 ft | 18 kts | 317° |
| 2026-04-26 19:56 | 50.87266 | 7.12291 | 237 ft | 19 kts | 21° |
| 2026-04-26 19:56 | 50.87396 | 7.12361 | 237 ft | 21 kts | 17° |
| 2026-04-26 19:56 | 50.87539 | 7.12433 | 237 ft | 22 kts | 18° |
| 2026-04-26 19:57 | 50.87691 | 7.12511 | 237 ft | 24 kts | 18° |
| 2026-04-26 19:57 | 50.87825 | 7.12579 | 237 ft | 12 kts | 18° |
| 2026-04-26 19:57 | 50.87902 | 7.12611 | 238 ft | 12 kts | 355° |
| 2026-04-26 19:57 | 50.87943 | 7.12581 | 238 ft | 5 kts | 324° |
| 2026-04-26 19:58 | 50.87951 | 7.12527 | 238 ft | 3 kts | 255° |
| 2026-04-26 19:58 | 50.87941 | 7.12485 | 238 ft | 3 kts | 253° |
| 2026-04-26 19:58 | 50.87939 | 7.12476 | 238 ft | 0 kts | 252° |
| 2026-04-26 19:58 | 50.87939 | 7.12473 | 238 ft | 1 kts | 256° |
| 2026-04-26 19:59 | 50.87937 | 7.12458 | 238 ft | 0 kts | 258° |